createdAt,value
2023-04-29T00:00:42.491Z,12.90
2023-04-29T00:03:09.383Z,12.73
2023-04-29T00:05:36.160Z,11.80
2023-04-29T00:08:03.753Z,11.70
2023-04-29T00:10:30.203Z,11.27
2023-04-29T00:12:56.622Z,10.80
2023-04-29T00:15:23.071Z,11.70
2023-04-29T00:17:50.704Z,12.10
2023-04-29T00:20:17.635Z,12.27
2023-04-29T00:22:44.091Z,11.40
2023-04-29T00:25:10.767Z,13.00
2023-04-29T00:27:37.173Z,12.53
2023-04-29T00:30:03.835Z,13.50
2023-04-29T00:32:30.363Z,12.47
2023-04-29T00:34:57.323Z,12.83
2023-04-29T00:37:24.067Z,13.13
2023-04-29T00:39:50.614Z,13.17
2023-04-29T00:42:17.103Z,14.30
2023-04-29T00:44:43.678Z,13.50
2023-04-29T00:47:11.901Z,14.97
2023-04-29T00:49:39.192Z,15.33
2023-04-29T00:52:07.930Z,14.37
2023-04-29T00:58:59.868Z,17.63
2023-04-29T01:01:27.089Z,17.20
2023-04-29T01:03:53.836Z,18.03
2023-04-29T01:06:33.042Z,18.00
2023-04-29T01:09:18.949Z,17.30
2023-04-29T01:11:52.482Z,17.27
2023-04-29T01:14:19.055Z,18.30
2023-04-29T01:16:50.793Z,19.67
2023-04-29T01:19:36.675Z,19.80
2023-04-29T01:22:03.143Z,20.43
2023-04-29T01:24:30.274Z,20.70
2023-04-29T01:26:59.204Z,20.90
2023-04-29T01:29:57.980Z,20.73
2023-04-29T01:32:37.447Z,21.23
2023-04-29T01:35:22.399Z,21.43
2023-04-29T01:37:55.934Z,22.23
2023-04-29T01:40:26.471Z,22.30
2023-04-29T01:43:11.891Z,23.23
2023-04-29T01:45:41.317Z,23.67
2023-04-29T01:48:09.454Z,24.50
2023-04-29T01:50:36.712Z,24.50
2023-04-29T01:53:11.087Z,26.10
2023-04-29T01:55:37.719Z,23.30
2023-04-29T01:58:28.023Z,25.63
2023-04-29T02:01:11.900Z,24.83
2023-04-29T02:03:39.151Z,24.90
2023-04-29T02:06:08.754Z,25.00
2023-04-29T02:08:36.213Z,25.87
2023-04-29T02:11:02.694Z,24.80
2023-04-29T02:13:34.302Z,22.40
2023-04-29T02:16:08.374Z,23.90
2023-04-29T02:18:35.411Z,25.43
2023-04-29T02:21:04.379Z,25.23
2023-04-29T02:23:33.753Z,24.53
2023-04-29T02:26:01.638Z,25.57
2023-04-29T02:28:28.123Z,28.17
2023-04-29T02:30:55.475Z,28.13
2023-04-29T02:33:22.000Z,27.40
2023-04-29T02:35:48.388Z,32.50
2023-04-29T02:38:16.861Z,31.57
2023-04-29T02:40:46.603Z,29.23
2023-04-29T02:43:13.203Z,30.10
2023-04-29T02:45:39.873Z,30.77
2023-04-29T02:48:07.576Z,32.20
2023-04-29T02:50:53.370Z,32.07
2023-04-29T02:53:38.657Z,32.30
2023-04-29T02:56:05.841Z,31.80
2023-04-29T02:58:32.369Z,30.57
2023-04-29T03:00:58.842Z,29.90
2023-04-29T03:03:25.708Z,30.90
2023-04-29T03:05:52.805Z,29.40
2023-04-29T03:08:19.677Z,30.07
2023-04-29T03:10:46.595Z,29.67
2023-04-29T03:13:13.076Z,31.00
2023-04-29T03:15:40.231Z,30.83
2023-04-29T03:18:06.830Z,30.67
2023-04-29T03:20:34.072Z,28.57
2023-04-29T03:23:02.598Z,26.30
2023-04-29T03:25:30.073Z,27.67
2023-04-29T03:27:57.108Z,30.43
2023-04-29T03:30:24.264Z,28.03
2023-04-29T03:32:54.316Z,27.27
2023-04-29T03:35:21.196Z,27.50
2023-04-29T03:38:10.978Z,26.67
2023-04-29T03:40:38.233Z,26.67
2023-04-29T03:43:04.732Z,27.07
2023-04-29T03:45:31.541Z,26.57
2023-04-29T03:47:58.077Z,26.67
2023-04-29T03:50:25.969Z,27.67
2023-04-29T03:52:52.859Z,26.00
2023-04-29T03:55:19.642Z,25.63
2023-04-29T03:57:47.048Z,27.00
2023-04-29T04:00:15.835Z,24.40
2023-04-29T04:02:49.601Z,25.20
2023-04-29T04:05:16.597Z,25.87
2023-04-29T04:07:48.718Z,23.80
2023-04-29T04:10:35.550Z,25.50
2023-04-29T04:13:06.118Z,22.57
2023-04-29T04:15:32.750Z,22.10
2023-04-29T04:17:59.791Z,23.10
2023-04-29T04:20:26.236Z,22.67
2023-04-29T04:22:54.897Z,23.00
2023-04-29T04:25:28.490Z,21.33
2023-04-29T04:28:00.889Z,21.63
2023-04-29T04:30:46.117Z,20.20
2023-04-29T04:33:12.648Z,21.50
2023-04-29T04:35:43.089Z,20.93
2023-04-29T04:38:11.298Z,20.00
2023-04-29T04:40:41.377Z,20.33
2023-04-29T04:43:29.579Z,20.43
2023-04-29T04:45:56.173Z,19.33
2023-04-29T04:48:22.890Z,19.70
2023-04-29T04:50:50.883Z,19.20
2023-04-29T04:53:17.493Z,18.83
2023-04-29T04:56:00.505Z,18.50
2023-04-29T04:58:27.382Z,19.93
2023-04-29T05:00:53.973Z,18.97
2023-04-29T05:03:20.709Z,20.57
2023-04-29T05:05:52.898Z,17.43
2023-04-29T05:08:19.408Z,17.80
2023-04-29T05:10:47.281Z,21.03
2023-04-29T05:13:13.787Z,19.50
2023-04-29T05:15:40.351Z,19.70
2023-04-29T05:18:07.920Z,18.77
2023-04-29T05:20:35.092Z,20.83
2023-04-29T05:23:02.322Z,19.17
2023-04-29T05:25:33.260Z,18.27
2023-04-29T05:28:00.636Z,19.90
2023-04-29T05:30:30.075Z,17.80
2023-04-29T05:32:56.786Z,18.53
2023-04-29T05:35:23.360Z,18.50
2023-04-29T05:37:49.849Z,17.07
2023-04-29T05:40:40.387Z,18.33
2023-04-29T05:43:25.426Z,18.10
2023-04-29T05:45:52.748Z,17.50
2023-04-29T05:48:19.258Z,15.43
2023-04-29T05:50:48.047Z,15.73
2023-04-29T05:53:14.476Z,14.67
2023-04-29T05:55:44.817Z,15.10
2023-04-29T05:58:11.673Z,15.07
2023-04-29T06:00:39.308Z,14.20
2023-04-29T06:03:12.782Z,13.70
2023-04-29T06:05:40.434Z,14.80
2023-04-29T06:08:27.462Z,13.40
2023-04-29T06:11:02.003Z,14.17
2023-04-29T06:13:30.530Z,12.40
2023-04-29T06:15:57.043Z,10.40
2023-04-29T06:18:25.054Z,10.17
2023-04-29T06:20:51.622Z,9.37
2023-04-29T06:23:18.339Z,10.07
2023-04-29T06:25:45.017Z,9.10
2023-04-29T06:28:11.446Z,8.73
2023-04-29T06:30:37.927Z,9.03
2023-04-29T06:33:04.552Z,8.67
2023-04-29T06:35:31.560Z,8.77
2023-04-29T06:38:11.488Z,8.00
2023-04-29T06:40:37.911Z,8.50
2023-04-29T06:43:22.541Z,7.83
2023-04-29T06:46:08.249Z,8.40
2023-04-29T06:48:39.825Z,8.37
2023-04-29T06:51:06.459Z,8.03
2023-04-29T06:53:36.353Z,7.67
2023-04-29T06:56:02.918Z,7.37
2023-04-29T06:58:29.757Z,7.10
2023-04-29T07:00:56.294Z,7.13
2023-04-29T07:03:22.886Z,8.10
2023-04-29T07:05:50.328Z,6.70
2023-04-29T07:08:16.809Z,6.03
2023-04-29T07:10:43.258Z,6.43
2023-04-29T07:13:09.704Z,7.03
2023-04-29T07:15:36.875Z,6.33
2023-04-29T07:18:05.252Z,7.30
2023-04-29T07:20:32.046Z,8.10
2023-04-29T07:22:59.232Z,7.87
2023-04-29T07:25:26.699Z,7.67
2023-04-29T07:27:53.205Z,8.07
2023-04-29T07:30:19.697Z,8.90
2023-04-29T07:32:47.140Z,8.43
2023-04-29T07:35:13.680Z,7.80
2023-04-29T07:37:43.816Z,9.27
2023-04-29T07:40:10.642Z,8.70
2023-04-29T07:42:37.820Z,8.83
2023-04-29T07:45:06.534Z,9.10
2023-04-29T07:47:33.634Z,8.93
2023-04-29T07:50:00.484Z,8.90
2023-04-29T07:52:26.958Z,9.40
2023-04-29T07:54:56.234Z,8.77
2023-04-29T07:57:23.110Z,9.10
2023-04-29T07:59:53.192Z,9.80
2023-04-29T08:02:20.923Z,10.03
2023-04-29T08:04:49.046Z,9.93
2023-04-29T08:07:15.817Z,9.30
2023-04-29T08:09:42.367Z,8.70
2023-04-29T08:12:10.368Z,8.80
2023-04-29T08:14:40.048Z,8.20
2023-04-29T08:17:07.359Z,9.20
2023-04-29T08:19:33.862Z,9.43
2023-04-29T08:22:01.093Z,8.77
2023-04-29T08:24:29.539Z,9.10
2023-04-29T08:26:55.971Z,9.60
2023-04-29T08:29:22.399Z,10.00
2023-04-29T08:31:50.497Z,10.10
2023-04-29T08:34:16.937Z,9.37
2023-04-29T08:36:43.744Z,9.70
2023-04-29T08:39:10.405Z,8.50
2023-04-29T08:41:36.948Z,9.30
2023-04-29T08:44:03.353Z,8.60
2023-04-29T08:46:30.826Z,8.50
2023-04-29T08:48:57.737Z,8.10
2023-04-29T08:51:24.438Z,7.77
2023-04-29T08:53:50.892Z,7.57
2023-04-29T08:56:21.608Z,7.90
2023-04-29T08:58:54.234Z,6.90
2023-04-29T09:01:21.314Z,7.10
2023-04-29T09:03:54.289Z,6.73
2023-04-29T09:06:21.572Z,7.00
2023-04-29T09:08:48.223Z,7.30
2023-04-29T09:11:15.409Z,6.73
2023-04-29T09:13:41.793Z,6.03
2023-04-29T09:16:12.759Z,6.83
2023-04-29T09:18:50.339Z,5.93
2023-04-29T09:21:21.135Z,7.53
2023-04-29T09:23:50.166Z,6.80
2023-04-29T09:26:16.688Z,6.33
2023-04-29T09:28:47.477Z,5.63
2023-04-29T09:31:14.369Z,6.10
2023-04-29T09:33:51.561Z,6.70
2023-04-29T09:36:50.778Z,7.30
2023-04-29T09:39:18.249Z,6.47
2023-04-29T09:41:53.897Z,6.23
2023-04-29T09:44:24.523Z,5.67
2023-04-29T09:46:59.493Z,8.10
2023-04-29T09:49:26.927Z,5.87
2023-04-29T09:52:00.244Z,5.77
2023-04-29T09:54:31.005Z,6.43
2023-04-29T09:56:58.962Z,5.73
2023-04-29T09:59:25.610Z,6.50
2023-04-29T10:01:56.320Z,5.43
2023-04-29T10:04:26.060Z,5.43
2023-04-29T10:06:53.496Z,7.83
2023-04-29T10:09:20.423Z,5.70
2023-04-29T10:11:48.665Z,5.70
2023-04-29T10:14:16.760Z,6.53
2023-04-29T10:16:51.360Z,5.13
2023-04-29T10:19:41.326Z,5.67
2023-04-29T10:22:09.777Z,5.23
2023-04-29T10:24:37.532Z,5.80
2023-04-29T10:27:07.238Z,5.70
2023-04-29T10:29:34.936Z,5.40
2023-04-29T10:32:01.832Z,4.77
2023-04-29T10:34:28.660Z,4.60
2023-04-29T10:36:55.758Z,5.73
2023-04-29T10:39:36.535Z,6.00
2023-04-29T10:42:15.725Z,5.70
2023-04-29T10:45:01.789Z,5.60
2023-04-29T10:47:28.423Z,6.13
2023-04-29T10:50:13.064Z,6.40
2023-04-29T10:52:52.029Z,7.00
2023-04-29T10:55:19.303Z,6.63
2023-04-29T10:57:45.727Z,6.30
2023-04-29T11:00:21.928Z,6.47
2023-04-29T11:02:48.416Z,5.60
2023-04-29T11:05:15.738Z,5.83
2023-04-29T11:07:44.370Z,5.30
2023-04-29T11:10:13.003Z,6.33
2023-04-29T11:12:39.459Z,5.50
2023-04-29T11:15:08.358Z,5.10
2023-04-29T11:17:36.912Z,5.97
2023-04-29T11:20:03.869Z,5.80
2023-04-29T11:22:32.073Z,5.80
2023-04-29T11:25:00.380Z,4.67
2023-04-29T11:27:29.347Z,5.40
2023-04-29T11:29:58.677Z,5.63
2023-04-29T11:32:26.146Z,5.13
2023-04-29T11:34:53.349Z,4.63
2023-04-29T11:37:20.718Z,5.47
2023-04-29T11:39:47.741Z,5.70
2023-04-29T11:42:14.246Z,5.23
2023-04-29T11:44:40.792Z,5.20
2023-04-29T11:47:07.848Z,6.03
2023-04-29T11:49:34.754Z,5.80
2023-04-29T11:52:01.378Z,6.03
2023-04-29T11:54:28.201Z,4.60
2023-04-29T11:56:58.067Z,5.10
2023-04-29T11:59:24.495Z,5.43
2023-04-29T12:01:51.440Z,5.43
2023-04-29T12:04:19.506Z,5.17
2023-04-29T12:06:46.474Z,6.03
2023-04-29T12:09:13.026Z,5.60
2023-04-29T12:11:39.647Z,5.30
2023-04-29T12:14:06.384Z,5.03
2023-04-29T12:16:34.134Z,4.30
2023-04-29T12:19:01.383Z,4.10
2023-04-29T12:21:28.420Z,4.67
2023-04-29T12:23:58.543Z,4.80
2023-04-29T12:26:27.554Z,4.33
2023-04-29T12:28:55.424Z,4.63
2023-04-29T12:31:22.856Z,4.50
2023-04-29T12:33:49.552Z,4.77
2023-04-29T12:36:18.613Z,5.00
2023-04-29T12:38:45.535Z,4.90
2023-04-29T12:41:13.513Z,4.10
2023-04-29T12:43:40.110Z,5.30
2023-04-29T12:46:07.904Z,4.70
2023-04-29T12:48:35.041Z,3.97
2023-04-29T12:51:01.903Z,5.00
2023-04-29T12:53:31.965Z,5.37
2023-04-29T12:55:58.622Z,5.40
2023-04-29T12:58:28.545Z,5.73
2023-04-29T13:00:54.974Z,4.80
2023-04-29T13:03:22.368Z,5.03
2023-04-29T13:05:52.609Z,4.63
2023-04-29T13:08:19.503Z,4.47
2023-04-29T13:10:46.270Z,4.60
2023-04-29T13:13:13.079Z,4.70
2023-04-29T13:15:39.480Z,4.40
2023-04-29T13:18:06.175Z,4.93
2023-04-29T13:20:33.504Z,4.30
2023-04-29T13:22:59.913Z,4.40
2023-04-29T13:25:26.525Z,4.10
2023-04-29T13:27:53.168Z,3.93
2023-04-29T13:30:19.831Z,4.50
2023-04-29T13:32:53.315Z,4.20
2023-04-29T13:35:22.045Z,4.77
2023-04-29T13:37:49.260Z,4.77
2023-04-29T13:40:20.623Z,4.60
2023-04-29T13:42:50.588Z,4.50
2023-04-29T13:45:23.219Z,4.60
2023-04-29T13:51:00.930Z,4.10
2023-04-29T14:03:04.040Z,3.47
2023-04-29T14:05:31.268Z,3.40
2023-04-29T14:07:58.116Z,3.20
2023-04-29T14:10:24.579Z,3.40
2023-04-29T14:12:51.468Z,3.50
2023-04-29T14:15:18.093Z,3.20
2023-04-29T14:17:44.732Z,2.80
2023-04-29T14:20:11.620Z,3.40
2023-04-29T14:22:38.029Z,3.60
2023-04-29T14:25:04.952Z,2.90
2023-04-29T14:27:31.637Z,2.83
2023-04-29T14:29:58.088Z,3.10
2023-04-29T14:32:24.663Z,3.20
2023-04-29T14:34:51.310Z,3.67
2023-04-29T14:37:17.813Z,3.60
2023-04-29T14:39:44.338Z,3.63
2023-04-29T14:42:11.043Z,4.53
2023-04-29T14:44:37.478Z,3.60
2023-04-29T14:47:04.213Z,3.27
2023-04-29T14:49:31.794Z,2.33
2023-04-29T14:51:58.437Z,3.20
2023-04-29T14:54:27.009Z,3.60
2023-04-29T14:56:53.681Z,2.70
2023-04-29T14:59:20.075Z,3.00
2023-04-29T15:01:47.033Z,3.40
2023-04-29T15:04:14.102Z,3.53
2023-04-29T15:06:40.769Z,3.60
2023-04-29T15:09:07.860Z,3.30
2023-04-29T15:11:34.360Z,4.33
2023-04-29T15:14:00.854Z,4.17
2023-04-29T15:16:28.627Z,3.50
2023-04-29T15:18:55.553Z,2.50
2023-04-29T15:21:22.156Z,2.70
2023-04-29T15:23:48.618Z,2.90
2023-04-29T15:26:15.034Z,3.17
2023-04-29T15:28:43.124Z,2.30
2023-04-29T15:31:09.907Z,2.40
2023-04-29T15:33:36.573Z,2.73
2023-04-29T15:36:03.393Z,2.67
2023-04-29T15:38:30.156Z,3.00
2023-04-29T15:41:01.217Z,2.43
2023-04-29T15:43:28.169Z,2.10
2023-04-29T15:45:54.682Z,2.83
2023-04-29T15:48:21.189Z,2.20
2023-04-29T15:50:47.716Z,1.73
2023-04-29T15:53:14.146Z,1.87
2023-04-29T15:55:40.778Z,2.07
2023-04-29T15:58:07.430Z,1.63
2023-04-29T16:00:33.835Z,1.70
2023-04-29T16:03:00.544Z,1.80
2023-04-29T16:05:27.229Z,1.90
2023-04-29T16:07:53.623Z,1.60
2023-04-29T16:10:20.038Z,1.73
2023-04-29T16:12:46.558Z,2.07
2023-04-29T16:15:13.386Z,2.23
2023-04-29T16:17:39.871Z,1.80
2023-04-29T16:20:06.925Z,1.80
2023-04-29T16:22:33.349Z,2.30
2023-04-29T16:25:00.133Z,1.80
2023-04-29T16:27:28.848Z,2.10
2023-04-29T16:29:55.975Z,1.97
2023-04-29T16:32:22.702Z,1.93
2023-04-29T16:34:49.136Z,2.43
2023-04-29T16:37:16.058Z,2.30
2023-04-29T16:39:42.785Z,2.27
2023-04-29T16:42:09.463Z,2.93
2023-04-29T16:44:36.466Z,2.80
2023-04-29T16:47:03.166Z,2.50
2023-04-29T16:49:30.190Z,2.33
2023-04-29T16:51:56.626Z,2.60
2023-04-29T16:54:23.175Z,2.30
2023-04-29T16:56:50.947Z,2.40
2023-04-29T16:59:18.144Z,2.73
2023-04-29T17:01:44.898Z,2.30
2023-04-29T17:04:11.415Z,1.97
2023-04-29T17:06:38.278Z,2.53
2023-04-29T17:09:05.697Z,1.87
2023-04-29T17:11:32.215Z,1.90
2023-04-29T17:13:58.613Z,1.83
2023-04-29T17:16:26.494Z,1.77
2023-04-29T17:18:53.201Z,1.40
2023-04-29T17:21:20.383Z,2.03
2023-04-29T17:23:46.884Z,2.10
2023-04-29T17:26:13.543Z,2.13
2023-04-29T17:28:39.954Z,1.87
2023-04-29T17:31:06.437Z,1.87
2023-04-29T17:33:36.174Z,2.07
2023-04-29T17:36:03.585Z,1.67
2023-04-29T17:38:30.677Z,1.43
2023-04-29T17:40:57.089Z,1.87
2023-04-29T17:43:23.565Z,1.80
2023-04-29T17:45:50.681Z,1.83
2023-04-29T17:48:19.191Z,1.60
2023-04-29T17:50:46.419Z,1.70
2023-04-29T17:53:13.258Z,1.60
2023-04-29T17:55:40.665Z,1.90
2023-04-29T17:58:07.382Z,2.00
2023-04-29T18:00:35.019Z,2.10
2023-04-29T18:03:02.277Z,2.63
2023-04-29T18:05:28.809Z,1.83
2023-04-29T18:07:55.246Z,1.90
2023-04-29T18:10:21.665Z,2.10
2023-04-29T18:12:48.165Z,2.07
2023-04-29T18:15:16.415Z,2.17
2023-04-29T18:17:43.445Z,1.77
2023-04-29T18:20:11.683Z,2.00
2023-04-29T18:22:38.151Z,2.10
2023-04-29T18:25:04.745Z,2.00
2023-04-29T18:27:33.518Z,1.90
2023-04-29T18:30:00.457Z,2.13
2023-04-29T18:32:27.887Z,2.23
2023-04-29T18:34:54.892Z,1.90
2023-04-29T18:37:21.327Z,1.70
2023-04-29T18:39:47.963Z,2.37
2023-04-29T18:42:14.358Z,1.73
2023-04-29T18:44:40.800Z,2.20
2023-04-29T18:47:07.548Z,1.90
2023-04-29T18:49:35.815Z,1.77
2023-04-29T18:52:05.119Z,2.30
2023-04-29T18:54:31.836Z,2.17
2023-04-29T18:56:58.801Z,1.83
2023-04-29T18:59:26.753Z,2.27
2023-04-29T19:01:53.278Z,2.23
2023-04-29T19:04:20.060Z,2.23
2023-04-29T19:06:46.664Z,2.80
2023-04-29T19:09:14.739Z,2.17
2023-04-29T19:11:42.027Z,2.70
2023-04-29T19:14:08.597Z,2.40
2023-04-29T19:16:37.357Z,2.50
2023-04-29T19:19:04.309Z,2.20
2023-04-29T19:21:32.894Z,2.20
2023-04-29T19:24:02.476Z,2.33
2023-04-29T19:26:29.013Z,2.27
2023-04-29T19:28:55.446Z,2.47
2023-04-29T19:31:22.028Z,2.53
2023-04-29T19:33:48.725Z,3.10
2023-04-29T19:36:15.238Z,3.50
2023-04-29T19:38:41.741Z,3.00
2023-04-29T19:41:08.328Z,2.60
2023-04-29T19:43:34.952Z,2.50
2023-04-29T19:46:01.384Z,3.37
2023-04-29T19:48:27.879Z,2.43
2023-04-29T19:50:54.902Z,3.13
2023-04-29T19:53:21.403Z,3.77
2023-04-29T19:55:50.483Z,3.23
2023-04-29T19:58:18.041Z,2.73
2023-04-29T20:00:44.767Z,2.50
2023-04-29T20:03:11.729Z,2.47
2023-04-29T20:05:41.966Z,2.03
2023-04-29T20:08:08.454Z,2.53
2023-04-29T20:10:35.000Z,1.70
2023-04-29T20:13:01.461Z,2.80
2023-04-29T20:15:28.368Z,2.20
2023-04-29T20:17:55.945Z,2.00
2023-04-29T20:20:22.428Z,2.50
2023-04-29T20:22:49.855Z,2.70
2023-04-29T20:25:16.759Z,2.20
2023-04-29T20:27:43.198Z,2.27
2023-04-29T20:30:11.532Z,2.33
2023-04-29T20:32:37.958Z,2.10
2023-04-29T20:35:05.529Z,2.17
2023-04-29T20:37:32.196Z,2.13
2023-04-29T20:39:58.865Z,2.33
2023-04-29T20:42:25.435Z,1.73
2023-04-29T20:44:52.254Z,1.60
2023-04-29T20:47:18.917Z,1.63
2023-04-29T20:49:45.331Z,1.83
2023-04-29T20:52:12.152Z,1.53
2023-04-29T20:54:38.951Z,1.90
2023-04-29T20:57:05.916Z,2.10
2023-04-29T20:59:33.297Z,3.10
2023-04-29T21:01:59.842Z,1.63
2023-04-29T21:04:26.937Z,2.00
2023-04-29T21:06:53.446Z,2.27
2023-04-29T21:09:21.528Z,1.57
2023-04-29T21:11:48.518Z,2.37
2023-04-29T21:14:14.913Z,1.70
2023-04-29T21:16:41.439Z,2.07
2023-04-29T21:19:07.873Z,1.90
2023-04-29T21:21:34.341Z,2.00
2023-04-29T21:24:03.952Z,1.23
2023-04-29T21:26:30.733Z,1.63
2023-04-29T21:28:57.112Z,2.00
2023-04-29T21:31:23.572Z,1.37
2023-04-29T21:33:50.049Z,2.00
2023-04-29T21:36:16.565Z,2.10
2023-04-29T21:38:43.135Z,1.50
2023-04-29T21:41:25.005Z,2.20
2023-04-29T21:43:51.589Z,1.73
2023-04-29T21:46:18.243Z,1.33
2023-04-29T21:48:45.270Z,2.07
2023-04-29T21:51:11.909Z,2.57
2023-04-29T21:53:38.405Z,1.50
2023-04-29T21:56:05.576Z,1.90
2023-04-29T21:58:32.093Z,1.93
2023-04-29T22:01:03.079Z,2.00
2023-04-29T22:03:30.069Z,2.50
2023-04-29T22:05:57.174Z,1.23
2023-04-29T22:08:23.681Z,1.83
2023-04-29T22:10:50.707Z,1.77
2023-04-29T22:13:17.118Z,1.63
2023-04-29T22:15:43.572Z,1.37
2023-04-29T22:18:10.352Z,1.90
2023-04-29T22:20:36.767Z,1.80
2023-04-29T22:23:03.344Z,1.87
2023-04-29T22:25:29.768Z,2.30
2023-04-29T22:27:56.657Z,1.90
2023-04-29T22:30:23.574Z,1.60
2023-04-29T22:32:50.063Z,2.10
2023-04-29T22:35:16.552Z,2.80
2023-04-29T22:37:42.987Z,2.37
2023-04-29T22:40:09.808Z,1.80
2023-04-29T22:42:36.677Z,2.50
2023-04-29T22:45:03.172Z,2.27
2023-04-29T22:47:29.927Z,2.50
2023-04-29T22:49:56.612Z,2.00
2023-04-29T22:52:23.110Z,1.90
2023-04-29T22:54:49.503Z,1.53
2023-04-29T22:57:16.274Z,1.70
2023-04-29T22:59:42.659Z,1.33
2023-04-29T23:02:09.797Z,1.73
2023-04-29T23:04:36.341Z,2.80
2023-04-29T23:07:03.166Z,1.60
2023-04-29T23:09:29.615Z,2.13
2023-04-29T23:11:56.095Z,1.90
2023-04-29T23:14:22.628Z,2.00
2023-04-29T23:16:49.074Z,1.83
2023-04-29T23:19:15.574Z,1.70
2023-04-29T23:21:42.012Z,1.60
2023-04-29T23:24:08.842Z,1.73
2023-04-29T23:26:35.263Z,1.93
2023-04-29T23:29:01.678Z,1.57
2023-04-29T23:31:28.137Z,1.67
2023-04-29T23:33:54.579Z,2.00
2023-04-29T23:36:21.028Z,2.10
2023-04-29T23:38:47.422Z,1.93
2023-04-29T23:41:13.966Z,2.00
2023-04-29T23:43:40.569Z,2.43
2023-04-29T23:46:07.314Z,1.57
2023-04-29T23:48:33.761Z,2.47
2023-04-29T23:51:00.736Z,1.73
2023-04-29T23:53:27.164Z,1.70
2023-04-29T23:55:53.685Z,2.07
2023-04-29T23:58:20.163Z,1.97
